EmailTwitter


Surface observations / Quebec / CYUL (71627)

Regions: Quebec | Canada | USA | Europe | France | UK | Elsewhere
Station
Display
Info & Location for CYUL (71627) | Help decoding METAR

Weather Conditions observed on 2019/10/14 at 20:00 UTC at MONTREAL INTL A, QB (CYUL)

Sky conditions: partly cloudy.

Temperature: 11.0 Celsius.

Dewpoint: 6.0 Celsius.

Relative Humidity: 71%

Winds: West at 13 km/h or 7 knots.

Mean Sea level Pressure: 101.23 kilopascals.

Altimeter Setting (QNH): 101.22 kilopascals or 29.89 inches of mercury.

Horizontal visibility: 30.00 statute miles or 48.00 kilometers.

Height of the Ceiling: 2743 metres ( 9000 feet ).

Coded METAR:

CYUL 142000Z 26007KT 30SM FEW020 SCT060 BKN090 11/06 A2989 RMK CF1SC4AC3 CF TR

SLP123=